createdAt,value
2018-02-02T00:00:14.752Z,970.50
2018-02-02T00:01:14.661Z,970.50
2018-02-02T00:02:14.630Z,970.53
2018-02-02T00:03:14.727Z,970.55
2018-02-02T00:04:14.558Z,970.55
2018-02-02T00:05:14.687Z,970.52
2018-02-02T00:06:14.409Z,970.53
2018-02-02T00:07:14.498Z,970.55
2018-02-02T00:08:14.469Z,970.53
2018-02-02T00:09:14.365Z,970.51
2018-02-02T00:10:14.338Z,970.53
2018-02-02T00:11:14.272Z,970.53
2018-02-02T00:12:14.176Z,970.50
2018-02-02T00:13:14.270Z,970.51
2018-02-02T00:14:14.141Z,970.47
2018-02-02T00:15:14.352Z,970.48
2018-02-02T00:16:13.963Z,970.49
2018-02-02T00:17:14.167Z,970.43
2018-02-02T00:18:13.953Z,970.49
2018-02-02T00:19:14.101Z,970.48
2018-02-02T00:20:13.806Z,970.47
2018-02-02T00:21:13.828Z,970.47
2018-02-02T00:22:14.501Z,970.48
2018-02-02T00:23:13.633Z,970.52
2018-02-02T00:24:13.675Z,970.49
2018-02-02T00:25:13.918Z,970.44
2018-02-02T00:26:13.776Z,970.41
2018-02-02T00:27:13.614Z,970.52
2018-02-02T00:28:13.503Z,970.48
2018-02-02T00:29:13.623Z,970.47
2018-02-02T00:30:13.355Z,970.51
2018-02-02T00:31:13.364Z,970.48
2018-02-02T00:32:15.220Z,970.50
2018-02-02T00:33:13.209Z,970.50
2018-02-02T00:34:13.219Z,970.49
2018-02-02T00:35:13.138Z,970.44
2018-02-02T00:36:13.102Z,970.41
2018-02-02T00:37:12.961Z,970.38
2018-02-02T00:38:12.935Z,970.36
2018-02-02T00:39:12.907Z,970.33
2018-02-02T00:40:12.805Z,970.36
2018-02-02T00:41:13.167Z,970.35
2018-02-02T00:42:12.887Z,970.36
2018-02-02T00:43:12.708Z,970.42
2018-02-02T00:44:12.617Z,970.40
2018-02-02T00:45:12.692Z,970.37
2018-02-02T00:46:12.544Z,970.38
2018-02-02T00:47:12.531Z,970.35
2018-02-02T00:48:12.537Z,970.38
2018-02-02T00:49:12.519Z,970.36
2018-02-02T00:50:12.546Z,970.40
2018-02-02T00:51:12.424Z,970.38
2018-02-02T00:52:12.299Z,970.39
2018-02-02T00:53:12.207Z,970.41
2018-02-02T00:54:12.285Z,970.40
2018-02-02T00:55:12.413Z,970.39
2018-02-02T00:56:12.200Z,970.40
2018-02-02T00:57:12.086Z,970.43
2018-02-02T00:58:12.500Z,970.42
2018-02-02T00:59:11.901Z,970.42
2018-02-02T01:00:11.969Z,970.46
2018-02-02T01:01:12.097Z,970.44
2018-02-02T01:02:11.876Z,970.44
2018-02-02T01:03:11.751Z,970.45
2018-02-02T01:04:12.497Z,970.47
2018-02-02T01:05:11.717Z,970.48
2018-02-02T01:06:11.732Z,970.43
2018-02-02T01:07:12.526Z,970.46
2018-02-02T01:08:11.579Z,970.47
2018-02-02T01:09:11.553Z,970.49
2018-02-02T01:10:11.515Z,970.48
2018-02-02T01:11:11.426Z,970.51
2018-02-02T01:12:11.430Z,970.52
2018-02-02T01:13:11.380Z,970.53
2018-02-02T01:14:11.202Z,970.52
2018-02-02T01:15:11.230Z,970.53
2018-02-02T01:16:11.142Z,970.53
2018-02-02T01:17:11.073Z,970.52
2018-02-02T01:18:11.081Z,970.53
2018-02-02T01:19:11.143Z,970.52
2018-02-02T01:20:11.052Z,970.55
2018-02-02T01:21:10.919Z,970.58
2018-02-02T01:22:10.826Z,970.51
2018-02-02T01:23:10.785Z,970.52
2018-02-02T01:24:10.756Z,970.50
2018-02-02T01:25:11.795Z,970.57
2018-02-02T01:26:11.501Z,970.55
2018-02-02T01:27:10.700Z,970.57
2018-02-02T01:28:10.612Z,970.59
2018-02-02T01:29:10.480Z,970.59
2018-02-02T01:30:10.491Z,970.58
2018-02-02T01:31:10.491Z,970.59
2018-02-02T01:32:10.351Z,970.62
2018-02-02T01:33:10.286Z,970.56
2018-02-02T01:34:10.252Z,970.54
2018-02-02T01:35:10.197Z,970.55
2018-02-02T01:36:10.182Z,970.55
2018-02-02T01:37:10.107Z,970.54
2018-02-02T01:38:10.154Z,970.55
2018-02-02T01:39:09.998Z,970.53
2018-02-02T01:40:10.075Z,970.55
2018-02-02T01:41:09.918Z,970.53
2018-02-02T01:42:09.859Z,970.55
2018-02-02T01:43:09.823Z,970.61
2018-02-02T01:44:09.768Z,970.55
2018-02-02T01:45:09.737Z,970.60
2018-02-02T01:46:09.672Z,970.57
2018-02-02T01:47:09.622Z,970.60
2018-02-02T01:48:09.596Z,970.62
2018-02-02T01:49:09.538Z,970.65
2018-02-02T01:50:09.479Z,970.62
2018-02-02T01:51:09.436Z,970.61
2018-02-02T01:52:09.534Z,970.60
2018-02-02T01:53:09.322Z,970.60
2018-02-02T01:54:09.298Z,970.61
2018-02-02T01:55:09.277Z,970.58
2018-02-02T01:56:09.235Z,970.62
2018-02-02T01:57:09.142Z,970.63
2018-02-02T01:58:09.112Z,970.64
2018-02-02T01:59:09.050Z,970.64
2018-02-02T02:00:09.008Z,970.68
2018-02-02T02:01:08.952Z,970.64
2018-02-02T02:02:08.967Z,970.67
2018-02-02T02:03:08.862Z,970.65
2018-02-02T02:04:08.804Z,970.68
2018-02-02T02:05:08.751Z,970.69
2018-02-02T02:06:08.712Z,970.66
2018-02-02T02:07:08.687Z,970.66
2018-02-02T02:08:08.661Z,970.65
2018-02-02T02:09:08.563Z,970.67
2018-02-02T02:10:08.516Z,970.67
2018-02-02T02:11:08.480Z,970.67
2018-02-02T02:12:08.535Z,970.69
2018-02-02T02:13:08.366Z,970.68
2018-02-02T02:14:08.336Z,970.70
2018-02-02T02:15:08.266Z,970.71
2018-02-02T02:16:08.215Z,970.72
2018-02-02T02:17:08.194Z,970.72
2018-02-02T02:18:08.131Z,970.71
2018-02-02T02:19:08.076Z,970.68
2018-02-02T02:20:08.034Z,970.65
2018-02-02T02:21:08.010Z,970.69
2018-02-02T02:22:07.924Z,970.67
2018-02-02T02:23:07.879Z,970.67
2018-02-02T02:24:07.829Z,970.67
2018-02-02T02:25:07.802Z,970.71
2018-02-02T02:26:07.754Z,970.69
2018-02-02T02:27:07.690Z,970.70
2018-02-02T02:28:07.664Z,970.70
2018-02-02T02:29:07.627Z,970.79
2018-02-02T02:30:07.583Z,970.74
2018-02-02T02:31:07.511Z,970.77
2018-02-02T02:32:07.443Z,970.75
2018-02-02T02:33:07.400Z,970.80
2018-02-02T02:34:07.349Z,970.79
2018-02-02T02:35:07.308Z,970.76
2018-02-02T02:36:07.248Z,970.78
2018-02-02T02:37:07.239Z,970.77
2018-02-02T02:38:07.153Z,970.78
2018-02-02T02:39:07.106Z,970.77
2018-02-02T02:40:07.065Z,970.76
2018-02-02T02:41:07.025Z,970.73
2018-02-02T02:42:06.961Z,970.69
2018-02-02T02:43:06.912Z,970.68
2018-02-02T02:44:06.868Z,970.68
2018-02-02T02:45:06.832Z,970.71
2018-02-02T02:46:06.810Z,970.72
2018-02-02T02:47:06.723Z,970.71
2018-02-02T02:48:06.683Z,970.68
2018-02-02T02:49:06.622Z,970.67
2018-02-02T02:50:06.563Z,970.67
2018-02-02T02:51:06.522Z,970.67
2018-02-02T02:52:06.489Z,970.71
2018-02-02T02:53:06.422Z,970.72
2018-02-02T02:54:06.373Z,970.74
2018-02-02T02:55:06.324Z,970.75
2018-02-02T02:56:06.284Z,970.72
2018-02-02T02:57:06.248Z,970.72
2018-02-02T02:58:06.186Z,970.73
2018-02-02T02:59:06.130Z,970.70
2018-02-02T03:00:06.085Z,970.73
2018-02-02T03:01:06.058Z,970.68
2018-02-02T03:02:05.994Z,970.69
2018-02-02T03:03:05.949Z,970.68
2018-02-02T03:04:05.896Z,970.64
2018-02-02T03:05:05.855Z,970.65
2018-02-02T03:06:05.795Z,970.64
2018-02-02T03:07:05.811Z,970.66
2018-02-02T03:08:05.707Z,970.66
2018-02-02T03:09:05.660Z,970.67
2018-02-02T03:10:05.605Z,970.63
2018-02-02T03:11:05.563Z,970.62
2018-02-02T03:12:05.499Z,970.61
2018-02-02T03:13:05.454Z,970.64
2018-02-02T03:14:05.399Z,970.60
2018-02-02T03:15:05.388Z,970.60
2018-02-02T03:16:05.324Z,970.58
2018-02-02T03:17:05.261Z,970.58
2018-02-02T03:18:05.230Z,970.57
2018-02-02T03:19:05.244Z,970.57
2018-02-02T03:20:05.108Z,970.52
2018-02-02T03:21:05.076Z,970.54
2018-02-02T03:22:05.037Z,970.53
2018-02-02T03:23:04.960Z,970.53
2018-02-02T03:24:04.954Z,970.57
2018-02-02T03:25:04.890Z,970.57
2018-02-02T03:26:04.825Z,970.58
2018-02-02T03:27:04.814Z,970.59
2018-02-02T03:28:04.742Z,970.66
2018-02-02T03:29:04.674Z,970.67
2018-02-02T03:30:04.641Z,970.65
2018-02-02T03:31:04.573Z,970.63
2018-02-02T03:32:04.562Z,970.63
2018-02-02T03:33:04.494Z,970.64
2018-02-02T03:34:04.437Z,970.60
2018-02-02T03:35:04.381Z,970.61
2018-02-02T03:36:04.328Z,970.62
2018-02-02T03:37:04.298Z,970.60
2018-02-02T03:38:04.227Z,970.61
2018-02-02T03:39:04.190Z,970.60
2018-02-02T03:40:04.137Z,970.62
2018-02-02T03:41:04.079Z,970.58
2018-02-02T03:42:04.068Z,970.64
2018-02-02T03:43:04.031Z,970.67
2018-02-02T03:44:03.950Z,970.72
2018-02-02T03:45:03.885Z,970.72
2018-02-02T03:46:03.837Z,970.79
2018-02-02T03:47:03.800Z,970.79
2018-02-02T03:48:03.743Z,970.76
2018-02-02T03:49:03.805Z,970.80
2018-02-02T03:50:03.646Z,970.81
2018-02-02T03:51:03.629Z,970.74
2018-02-02T03:52:03.543Z,970.77
2018-02-02T03:53:03.503Z,970.81
2018-02-02T03:54:03.559Z,970.81
2018-02-02T03:55:03.410Z,970.82
2018-02-02T03:56:03.360Z,970.85
2018-02-02T03:57:03.345Z,970.84
2018-02-02T03:58:03.410Z,970.82
2018-02-02T03:59:03.205Z,970.78
2018-02-02T04:00:03.155Z,970.78
2018-02-02T04:01:03.118Z,970.77
2018-02-02T04:02:03.084Z,970.79
2018-02-02T04:03:03.016Z,970.80
2018-02-02T04:04:02.960Z,970.79
2018-02-02T04:05:02.907Z,970.81
2018-02-02T04:06:02.956Z,970.80
2018-02-02T04:07:02.830Z,970.76
2018-02-02T04:08:02.757Z,970.78
2018-02-02T04:09:02.735Z,970.77
2018-02-02T04:10:02.808Z,970.80
2018-02-02T04:11:02.679Z,970.79
2018-02-02T04:12:02.574Z,970.80
2018-02-02T04:13:02.518Z,970.80
2018-02-02T04:14:02.478Z,970.75
2018-02-02T04:15:02.417Z,970.81
2018-02-02T04:16:02.385Z,970.76
2018-02-02T04:17:02.327Z,970.74
2018-02-02T04:18:02.276Z,970.74
2018-02-02T04:19:02.232Z,970.72
2018-02-02T04:20:02.191Z,970.71
2018-02-02T04:21:02.128Z,970.73
2018-02-02T04:22:02.087Z,970.70
2018-02-02T04:23:02.076Z,970.71
2018-02-02T04:24:02.004Z,970.67
2018-02-02T04:25:01.953Z,970.68
2018-02-02T04:26:01.914Z,970.68
2018-02-02T04:27:01.828Z,970.66
2018-02-02T04:28:01.787Z,970.72
2018-02-02T04:29:01.769Z,970.77
2018-02-02T04:30:01.696Z,970.74
2018-02-02T04:31:01.672Z,970.78
2018-02-02T04:32:01.591Z,970.80
2018-02-02T04:33:01.578Z,970.76
2018-02-02T04:34:01.509Z,970.75
2018-02-02T04:35:01.494Z,970.78
2018-02-02T04:36:01.399Z,970.75
2018-02-02T04:37:01.342Z,970.76
2018-02-02T04:38:01.302Z,970.76
2018-02-02T04:39:01.295Z,970.76
2018-02-02T04:40:01.192Z,970.74
2018-02-02T04:41:01.142Z,970.77
2018-02-02T04:42:01.099Z,970.78
2018-02-02T04:43:01.197Z,970.81
2018-02-02T04:44:01.010Z,970.77
2018-02-02T04:45:01.010Z,970.74
2018-02-02T04:46:00.898Z,970.80
2018-02-02T04:47:00.858Z,970.73
2018-02-02T04:48:00.993Z,970.74
2018-02-02T04:49:00.775Z,970.75
2018-02-02T04:50:00.719Z,970.72
2018-02-02T04:51:00.718Z,970.67
2018-02-02T04:52:00.605Z,970.72
2018-02-02T04:53:00.579Z,970.70
2018-02-02T04:54:00.509Z,970.70
2018-02-02T04:55:00.502Z,970.69
2018-02-02T04:56:00.415Z,970.66
2018-02-02T04:57:00.384Z,970.67
2018-02-02T04:58:00.332Z,970.67
2018-02-02T04:59:00.280Z,970.69
2018-02-02T05:00:00.221Z,970.69
2018-02-02T05:01:00.208Z,970.64
2018-02-02T05:02:00.154Z,970.59
2018-02-02T05:03:00.118Z,970.64
2018-02-02T05:04:00.067Z,970.64
2018-02-02T05:04:59.968Z,970.66
2018-02-02T05:05:59.930Z,970.61
2018-02-02T05:06:59.890Z,970.68
2018-02-02T05:07:59.825Z,970.72
2018-02-02T05:08:59.782Z,970.71
2018-02-02T05:09:59.849Z,970.73
2018-02-02T05:10:59.763Z,970.69
2018-02-02T05:11:59.636Z,970.72
2018-02-02T05:12:59.570Z,970.71
2018-02-02T05:13:59.540Z,970.70
2018-02-02T05:14:59.525Z,970.67
2018-02-02T05:15:59.450Z,970.65
2018-02-02T05:16:59.389Z,970.64
2018-02-02T05:17:59.328Z,970.65
2018-02-02T05:18:59.282Z,970.63
2018-02-02T05:19:59.240Z,970.63
2018-02-02T05:20:59.223Z,970.63
2018-02-02T05:21:59.151Z,970.60
2018-02-02T05:22:59.089Z,970.66
2018-02-02T05:23:59.051Z,970.67
2018-02-02T05:24:59.041Z,970.68
2018-02-02T05:25:58.947Z,970.68
2018-02-02T05:26:58.908Z,970.69
2018-02-02T05:27:58.868Z,970.73
2018-02-02T05:28:58.803Z,970.72
2018-02-02T05:29:58.737Z,970.73
2018-02-02T05:30:58.698Z,970.71
2018-02-02T05:31:58.648Z,970.72
2018-02-02T05:32:58.601Z,970.74
2018-02-02T05:33:58.555Z,970.72
2018-02-02T05:34:58.503Z,970.73
2018-02-02T05:35:58.474Z,970.74
2018-02-02T05:36:58.442Z,970.79
2018-02-02T05:37:58.363Z,970.77
2018-02-02T05:38:58.315Z,970.70
2018-02-02T05:39:58.251Z,970.74
2018-02-02T05:40:58.243Z,970.73
2018-02-02T05:41:58.148Z,970.73
2018-02-02T05:42:58.101Z,970.69
2018-02-02T05:43:58.068Z,970.69
2018-02-02T05:44:58.135Z,970.71
2018-02-02T05:45:57.995Z,970.71
2018-02-02T05:46:57.921Z,970.69
2018-02-02T05:47:57.910Z,970.73
2018-02-02T05:48:57.821Z,970.72
2018-02-02T05:49:57.766Z,970.72
2018-02-02T05:50:57.886Z,970.74
2018-02-02T05:51:57.704Z,970.73
2018-02-02T05:52:57.633Z,970.75
2018-02-02T05:53:57.568Z,970.68
2018-02-02T05:54:57.528Z,970.66
2018-02-02T05:55:57.490Z,970.63
2018-02-02T05:56:57.414Z,970.56
2018-02-02T05:57:57.399Z,970.66
2018-02-02T05:58:57.449Z,970.58
2018-02-02T05:59:57.321Z,970.61
2018-02-02T06:00:57.319Z,970.61
2018-02-02T06:01:57.247Z,970.65
2018-02-02T06:02:57.157Z,970.67
2018-02-02T06:03:57.069Z,970.65
2018-02-02T06:04:57.028Z,970.63
2018-02-02T06:05:57.036Z,970.63
2018-02-02T06:06:56.958Z,970.64
2018-02-02T06:07:56.941Z,970.65
2018-02-02T06:08:56.845Z,970.62
2018-02-02T06:09:56.825Z,970.62
2018-02-02T06:10:56.745Z,970.63
2018-02-02T06:11:56.693Z,970.62
2018-02-02T06:12:56.632Z,970.64
2018-02-02T06:13:56.582Z,970.63
2018-02-02T06:14:56.539Z,970.60
2018-02-02T06:15:56.499Z,970.56
2018-02-02T06:16:56.436Z,970.57
2018-02-02T06:17:56.383Z,970.55
2018-02-02T06:18:56.353Z,970.57
2018-02-02T06:19:56.283Z,970.57
2018-02-02T06:20:56.278Z,970.58
2018-02-02T06:21:56.214Z,970.59
2018-02-02T06:22:56.150Z,970.63
2018-02-02T06:23:56.142Z,970.61
2018-02-02T06:24:56.117Z,970.60
2018-02-02T06:25:55.995Z,970.58
2018-02-02T06:26:55.949Z,970.58
2018-02-02T06:27:55.914Z,970.58
2018-02-02T06:28:55.844Z,970.60
2018-02-02T06:29:55.806Z,970.58
2018-02-02T06:30:55.753Z,970.58
2018-02-02T06:31:55.710Z,970.61
2018-02-02T06:32:55.684Z,970.61
2018-02-02T06:33:55.738Z,970.63
2018-02-02T06:34:55.555Z,970.63
2018-02-02T06:35:55.553Z,970.61
2018-02-02T06:36:55.488Z,970.67
2018-02-02T06:37:55.427Z,970.68
2018-02-02T06:38:55.357Z,970.66
2018-02-02T06:39:55.316Z,970.65
2018-02-02T06:40:55.284Z,970.65
2018-02-02T06:41:55.213Z,970.71
2018-02-02T06:42:55.275Z,970.70
2018-02-02T06:43:55.269Z,970.68
2018-02-02T06:44:55.184Z,970.72
2018-02-02T06:45:55.070Z,970.67
2018-02-02T06:46:55.143Z,970.75
2018-02-02T06:47:55.018Z,970.77
2018-02-02T06:48:54.921Z,970.75
2018-02-02T06:49:54.939Z,970.78
2018-02-02T06:50:54.849Z,970.84
2018-02-02T06:51:54.726Z,970.82
2018-02-02T06:52:54.699Z,970.82
2018-02-02T06:53:54.649Z,970.84
2018-02-02T06:54:54.651Z,970.82
2018-02-02T06:55:54.669Z,970.79
2018-02-02T06:56:54.647Z,970.82
2018-02-02T06:57:54.607Z,970.81
2018-02-02T06:58:54.514Z,970.85
2018-02-02T06:59:54.366Z,970.77
2018-02-02T07:00:54.350Z,970.75
2018-02-02T07:01:54.257Z,970.80
2018-02-02T07:02:54.218Z,970.81
2018-02-02T07:03:54.349Z,970.81
2018-02-02T07:04:54.264Z,970.87
2018-02-02T07:05:54.167Z,970.90
2018-02-02T07:06:54.084Z,970.85
2018-02-02T07:07:54.021Z,970.88
2018-02-02T07:08:56.642Z,970.93
2018-02-02T07:09:53.872Z,970.95
2018-02-02T07:10:53.942Z,970.94
2018-02-02T07:11:53.780Z,970.88
2018-02-02T07:12:53.765Z,970.98
2018-02-02T07:13:53.721Z,970.91
2018-02-02T07:14:53.773Z,970.95
2018-02-02T07:15:53.801Z,970.93
2018-02-02T07:16:53.601Z,970.98
2018-02-02T07:17:53.539Z,971.00
2018-02-02T07:18:53.568Z,970.96
2018-02-02T07:19:53.413Z,970.98
2018-02-02T07:20:53.438Z,970.98
2018-02-02T07:21:53.548Z,970.95
2018-02-02T07:22:53.265Z,970.99
2018-02-02T07:23:53.266Z,970.99
2018-02-02T07:24:53.352Z,971.04
2018-02-02T07:25:53.187Z,971.05
2018-02-02T07:26:53.358Z,971.06
2018-02-02T07:27:53.042Z,971.07
2018-02-02T07:28:53.026Z,971.10
2018-02-02T07:29:52.962Z,971.12
2018-02-02T07:30:52.903Z,971.10
2018-02-02T07:31:52.911Z,971.12
2018-02-02T07:32:52.911Z,971.14
2018-02-02T07:33:52.923Z,971.20
2018-02-02T07:34:52.763Z,971.21
2018-02-02T07:35:52.670Z,971.17
2018-02-02T07:36:52.827Z,971.26
2018-02-02T07:37:52.603Z,971.18
2018-02-02T07:38:52.582Z,971.15
2018-02-02T07:39:52.486Z,971.16
2018-02-02T07:40:52.461Z,971.17
2018-02-02T07:41:52.522Z,971.13
2018-02-02T07:42:52.613Z,971.12
2018-02-02T07:43:52.326Z,971.11
2018-02-02T07:44:52.256Z,971.07
2018-02-02T07:45:52.410Z,971.11
2018-02-02T07:46:52.128Z,971.03
2018-02-02T07:47:55.034Z,971.09
2018-02-02T07:48:52.050Z,971.12
2018-02-02T07:49:52.020Z,971.11
2018-02-02T07:50:52.010Z,971.05
2018-02-02T07:51:51.919Z,971.08
2018-02-02T07:52:51.873Z,971.11
2018-02-02T07:53:51.929Z,971.12
2018-02-02T07:54:51.809Z,971.08
2018-02-02T07:55:51.846Z,971.10
2018-02-02T07:56:51.758Z,971.10
2018-02-02T07:57:51.633Z,971.07
2018-02-02T07:58:51.659Z,971.09
2018-02-02T07:59:51.589Z,971.08
2018-02-02T08:00:51.638Z,971.09
2018-02-02T08:01:51.574Z,971.04
2018-02-02T08:02:51.608Z,971.02
2018-02-02T08:03:51.490Z,971.09
2018-02-02T08:04:51.289Z,971.08
2018-02-02T08:05:51.374Z,971.06
2018-02-02T08:06:51.194Z,971.04
2018-02-02T08:07:51.305Z,971.00
2018-02-02T08:08:51.132Z,971.04
2018-02-02T08:09:51.233Z,971.01
2018-02-02T08:10:51.147Z,971.02
2018-02-02T08:11:51.045Z,971.04
2018-02-02T08:12:51.035Z,971.05
2018-02-02T08:13:51.032Z,971.01
2018-02-02T08:14:50.887Z,970.99
2018-02-02T08:15:50.834Z,971.02
2018-02-02T08:16:50.780Z,970.99
2018-02-02T08:17:50.798Z,971.08
2018-02-02T08:18:50.721Z,971.10
2018-02-02T08:19:50.645Z,971.03
2018-02-02T08:20:50.600Z,971.11
2018-02-02T08:21:50.677Z,971.09
2018-02-02T08:22:50.534Z,971.04
2018-02-02T08:23:50.403Z,971.09
2018-02-02T08:24:51.033Z,971.08
2018-02-02T08:25:50.493Z,971.04
2018-02-02T08:26:50.275Z,971.05
2018-02-02T08:27:50.219Z,970.99
2018-02-02T08:28:50.310Z,971.01
2018-02-02T08:29:50.193Z,971.03
2018-02-02T08:30:50.741Z,970.96
2018-02-02T08:31:50.193Z,970.95
2018-02-02T08:32:50.126Z,970.98
2018-02-02T08:33:49.976Z,970.82
2018-02-02T08:34:49.935Z,970.91
2018-02-02T08:35:50.127Z,970.91
2018-02-02T08:36:49.973Z,970.95
2018-02-02T08:37:49.918Z,971.00
2018-02-02T08:38:50.009Z,970.98
2018-02-02T08:39:55.858Z,970.95
2018-02-02T08:40:50.032Z,970.91
2018-02-02T08:41:49.642Z,970.96
2018-02-02T08:42:49.594Z,970.96
2018-02-02T08:43:49.572Z,970.93
2018-02-02T08:44:49.696Z,970.89
2018-02-02T08:45:49.668Z,970.93
2018-02-02T08:46:49.648Z,970.97
2018-02-02T08:47:49.498Z,970.93
2018-02-02T08:48:49.490Z,970.93
2018-02-02T08:49:49.289Z,970.92
2018-02-02T08:50:54.389Z,970.92
2018-02-02T08:51:49.383Z,970.92
2018-02-02T08:52:49.189Z,970.93
2018-02-02T08:53:49.154Z,970.97
2018-02-02T08:54:49.049Z,970.96
2018-02-02T08:55:49.101Z,970.93
2018-02-02T08:56:49.094Z,971.00
2018-02-02T08:57:49.032Z,970.95
2018-02-02T08:58:48.945Z,970.91
2018-02-02T08:59:51.962Z,970.97
2018-02-02T09:00:49.005Z,970.93
2018-02-02T09:01:48.867Z,970.96
2018-02-02T09:02:49.090Z,970.94
2018-02-02T09:03:48.817Z,970.98
2018-02-02T09:04:48.761Z,970.90
2018-02-02T09:05:48.758Z,970.93
2018-02-02T09:06:48.720Z,970.95
2018-02-02T09:07:48.579Z,970.97
2018-02-02T09:08:48.535Z,971.02
2018-02-02T09:09:48.461Z,970.99
2018-02-02T09:10:48.486Z,971.04
2018-02-02T09:11:48.640Z,970.95
2018-02-02T09:12:48.320Z,970.91
2018-02-02T09:13:48.434Z,970.94
2018-02-02T09:14:48.478Z,970.88
2018-02-02T09:15:48.349Z,970.92
2018-02-02T09:16:48.141Z,970.91
2018-02-02T09:17:48.080Z,970.92
2018-02-02T09:18:48.044Z,970.95
2018-02-02T09:19:48.043Z,970.95
2018-02-02T09:20:48.035Z,970.99
2018-02-02T09:21:48.064Z,970.98
2018-02-02T09:22:47.886Z,970.94
2018-02-02T09:23:47.853Z,971.02
2018-02-02T09:24:47.812Z,970.95
2018-02-02T09:25:47.779Z,970.96
2018-02-02T09:26:48.075Z,971.01
2018-02-02T09:27:47.724Z,971.05
2018-02-02T09:28:47.758Z,970.99
2018-02-02T09:29:47.638Z,971.06
2018-02-02T09:30:47.653Z,971.06
2018-02-02T09:31:47.569Z,971.04
2018-02-02T09:32:47.558Z,971.09
2018-02-02T09:33:47.534Z,971.09
2018-02-02T09:34:47.460Z,971.06
2018-02-02T09:35:47.457Z,971.08
2018-02-02T09:36:47.398Z,971.09
2018-02-02T09:37:47.371Z,971.10
2018-02-02T09:38:47.369Z,971.13
2018-02-02T09:39:47.294Z,971.06
2018-02-02T09:40:47.360Z,971.09
2018-02-02T09:41:47.219Z,971.09
2018-02-02T09:42:47.401Z,971.11
2018-02-02T09:43:47.309Z,971.12
2018-02-02T09:44:47.292Z,971.05
2018-02-02T09:45:49.143Z,971.11
2018-02-02T09:46:47.255Z,971.15
2018-02-02T09:47:47.072Z,971.09
2018-02-02T09:48:46.957Z,971.04
2018-02-02T09:49:46.947Z,971.07
2018-02-02T09:50:46.981Z,971.18
2018-02-02T09:51:46.883Z,971.20
2018-02-02T09:52:46.791Z,971.24
2018-02-02T09:53:46.824Z,971.23
2018-02-02T09:54:46.707Z,971.22
2018-02-02T09:55:46.685Z,971.10
2018-02-02T09:56:46.661Z,971.22
2018-02-02T09:57:46.586Z,971.21
2018-02-02T09:58:46.545Z,971.20
2018-02-02T09:59:46.539Z,971.16
2018-02-02T10:00:46.526Z,971.11
2018-02-02T10:01:46.460Z,971.17
2018-02-02T10:02:46.387Z,971.14
2018-02-02T10:03:46.336Z,971.11
2018-02-02T10:04:46.298Z,971.13
2018-02-02T10:05:46.257Z,971.12
2018-02-02T10:06:46.209Z,971.08
2018-02-02T10:07:46.174Z,971.15
2018-02-02T10:08:46.159Z,971.14
2018-02-02T10:09:46.088Z,971.14
2018-02-02T10:10:46.041Z,971.12
2018-02-02T10:11:45.999Z,971.16
2018-02-02T10:12:45.952Z,971.14
2018-02-02T10:13:45.918Z,971.19
2018-02-02T10:14:45.861Z,971.16
2018-02-02T10:15:45.827Z,971.24
2018-02-02T10:16:45.782Z,971.17
2018-02-02T10:17:45.738Z,971.17
2018-02-02T10:18:45.714Z,971.18
2018-02-02T10:19:45.698Z,971.15
2018-02-02T10:20:45.614Z,971.10
2018-02-02T10:21:45.570Z,971.16
2018-02-02T10:22:45.517Z,971.09
2018-02-02T10:23:45.487Z,971.16
2018-02-02T10:24:45.516Z,971.14
2018-02-02T10:25:45.406Z,971.11
2018-02-02T10:26:45.351Z,971.12
2018-02-02T10:27:45.339Z,971.14
2018-02-02T10:28:45.264Z,971.15
2018-02-02T10:29:45.241Z,971.04
2018-02-02T10:30:45.204Z,971.17
2018-02-02T10:31:45.154Z,971.04
2018-02-02T10:32:45.120Z,971.09
2018-02-02T10:33:45.046Z,971.06
2018-02-02T10:34:45.019Z,971.09
2018-02-02T10:35:44.988Z,971.10
2018-02-02T10:36:44.924Z,971.11
2018-02-02T10:37:44.876Z,971.13
2018-02-02T10:38:44.851Z,971.04
2018-02-02T10:39:44.806Z,971.05
2018-02-02T10:40:44.754Z,971.08
2018-02-02T10:41:44.715Z,971.07
2018-02-02T10:42:44.673Z,971.03
2018-02-02T10:43:44.625Z,970.97
2018-02-02T10:44:44.586Z,971.03
2018-02-02T10:45:44.543Z,971.00
2018-02-02T10:46:44.517Z,970.98
2018-02-02T10:47:44.469Z,970.98
2018-02-02T10:48:44.428Z,971.03
2018-02-02T10:49:44.377Z,971.04
2018-02-02T10:50:44.337Z,970.94
2018-02-02T10:51:44.302Z,971.00
2018-02-02T10:52:44.250Z,971.03
2018-02-02T10:53:44.254Z,971.06
2018-02-02T10:54:44.198Z,971.06
2018-02-02T10:55:44.125Z,971.05
2018-02-02T10:56:44.084Z,971.06
2018-02-02T10:57:44.040Z,971.05
2018-02-02T10:58:44.013Z,971.03
2018-02-02T10:59:43.950Z,971.12
2018-02-02T11:00:43.948Z,971.02
2018-02-02T11:01:43.873Z,971.00
2018-02-02T11:02:43.832Z,970.99
2018-02-02T11:03:43.787Z,971.05
2018-02-02T11:04:43.754Z,971.04
2018-02-02T11:05:43.698Z,971.06
2018-02-02T11:06:43.660Z,971.04
2018-02-02T11:07:43.622Z,971.04
2018-02-02T11:08:43.572Z,971.00
2018-02-02T11:09:43.534Z,971.03
2018-02-02T11:10:43.484Z,971.02
2018-02-02T11:11:43.453Z,971.03
2018-02-02T11:12:43.393Z,971.00
2018-02-02T11:13:43.356Z,970.95
2018-02-02T11:14:43.311Z,971.04
2018-02-02T11:15:43.300Z,971.03
2018-02-02T11:16:43.220Z,971.01
2018-02-02T11:17:43.180Z,970.98
2018-02-02T11:18:43.138Z,970.96
2018-02-02T11:19:43.092Z,971.00
2018-02-02T11:20:43.051Z,971.01
2018-02-02T11:21:43.013Z,970.96
2018-02-02T11:22:42.958Z,971.07
2018-02-02T11:23:42.922Z,971.04
2018-02-02T11:24:42.873Z,971.01
2018-02-02T11:25:42.835Z,971.02
2018-02-02T11:26:42.788Z,971.00
2018-02-02T11:27:42.750Z,971.00
2018-02-02T11:28:42.707Z,970.95
2018-02-02T11:29:42.648Z,970.95
2018-02-02T11:30:42.608Z,971.02
2018-02-02T11:31:42.576Z,970.91
2018-02-02T11:32:42.522Z,970.94
2018-02-02T11:33:42.477Z,970.91
2018-02-02T11:34:42.443Z,970.94
2018-02-02T11:35:42.403Z,970.92
2018-02-02T11:36:42.355Z,970.93
2018-02-02T11:37:42.301Z,970.88
2018-02-02T11:38:42.254Z,970.93
2018-02-02T11:39:42.230Z,970.88
2018-02-02T11:40:42.186Z,970.85
2018-02-02T11:41:42.133Z,970.87
2018-02-02T11:42:42.087Z,970.86
2018-02-02T11:43:42.046Z,970.82
2018-02-02T11:44:41.987Z,970.83
2018-02-02T11:45:41.943Z,970.81
2018-02-02T11:46:41.915Z,970.81
2018-02-02T11:47:41.901Z,970.84
2018-02-02T11:48:41.822Z,970.88
2018-02-02T11:49:41.769Z,970.82
2018-02-02T11:50:41.722Z,970.83
2018-02-02T11:51:41.690Z,970.78
2018-02-02T11:52:41.641Z,970.83
2018-02-02T11:53:41.592Z,970.80
2018-02-02T11:54:41.553Z,970.80
2018-02-02T11:55:41.509Z,970.84
2018-02-02T11:56:41.458Z,970.85
2018-02-02T11:57:41.413Z,970.79
2018-02-02T11:58:41.396Z,970.80
2018-02-02T11:59:41.337Z,970.78
2018-02-02T12:00:41.291Z,970.81
2018-02-02T12:01:41.241Z,970.84
2018-02-02T12:02:41.200Z,970.80
2018-02-02T12:03:41.150Z,970.74
2018-02-02T12:04:41.106Z,970.81
2018-02-02T12:05:41.072Z,970.86
2018-02-02T12:06:41.013Z,970.82
2018-02-02T12:07:40.974Z,970.82
2018-02-02T12:08:40.931Z,970.84
2018-02-02T12:09:40.878Z,970.79
2018-02-02T12:10:40.850Z,970.81
2018-02-02T12:11:40.812Z,970.80
2018-02-02T12:12:40.749Z,970.85
2018-02-02T12:13:40.698Z,970.79
2018-02-02T12:14:40.654Z,970.79
2018-02-02T12:15:40.617Z,970.73
2018-02-02T12:16:40.588Z,970.75
2018-02-02T12:17:40.526Z,970.80
2018-02-02T12:18:40.491Z,970.74
2018-02-02T12:19:40.441Z,970.76
2018-02-02T12:20:40.415Z,970.74
2018-02-02T12:21:40.350Z,970.79
2018-02-02T12:22:40.329Z,970.79
2018-02-02T12:23:40.261Z,970.78
2018-02-02T12:24:40.223Z,970.80
2018-02-02T12:25:40.172Z,970.74
2018-02-02T12:26:40.136Z,970.72
2018-02-02T12:27:40.110Z,970.73